Time;durP1;ratioP1;P1;durP2;ratioP2;P2;SDS_P1;SDS_P2;PMS_P1;PMS_P2;Temp;Humidity;BMP_temperature;BMP_pressure;BME280_temperature;BME280_humidity;BME280_pressure;Samples;Min_cycle;Max_cycle;Signal;HPM_P1;HPM_P2
2021/06/05 00:00:14;;;;;;;;;7.75;6.00;;;;;26.25;46.30;101923.31;5015801;28;45595;-54
2021/06/05 00:02:40;;;;;;;;;4.50;3.50;;;;;26.24;46.21;101933.47;5017262;28;45313;-55
2021/06/05 00:05:07;;;;;;;;;4.00;3.00;;;;;26.21;45.94;101934.69;5015495;28;45329;-55
2021/06/05 00:07:32;;;;;;;;;7.00;5.00;;;;;26.21;46.08;101937.44;5016877;28;45349;-56
2021/06/05 00:09:58;;;;;;;;;4.00;4.00;;;;;26.21;46.29;101933.81;5009814;28;45256;-54
2021/06/05 00:12:26;;;;;;;;;6.50;5.00;;;;;26.20;45.87;101935.72;5016423;28;45341;-56
2021/06/05 00:14:52;;;;;;;;;3.00;3.00;;;;;26.19;46.21;101928.47;4996693;28;45373;-55
2021/06/05 00:17:17;;;;;;;;;4.00;4.00;;;;;26.18;45.85;101931.41;4997018;28;45192;-54
2021/06/05 00:19:44;;;;;;;;;5.75;4.75;;;;;26.18;45.61;101923.16;4996949;28;45306;-54
2021/06/05 00:22:09;;;;;;;;;5.75;4.25;;;;;26.17;46.09;101935.22;4995866;28;45263;-55
2021/06/05 00:24:35;;;;;;;;;5.50;3.50;;;;;26.17;46.01;101927.78;4996891;28;45465;-53
2021/06/05 00:27:00;;;;;;;;;5.00;5.00;;;;;26.17;46.09;101926.94;4996870;28;45464;-55
2021/06/05 00:29:26;;;;;;;;;6.50;5.00;;;;;26.16;45.77;101926.06;5004103;28;45960;-57
2021/06/05 00:31:51;;;;;;;;;4.50;4.00;;;;;26.14;45.79;101922.63;5016502;28;45427;-55
2021/06/05 00:34:17;;;;;;;;;3.50;3.50;;;;;26.13;45.61;101925.56;5016623;28;45930;-55
2021/06/05 00:36:42;;;;;;;;;4.00;4.00;;;;;26.11;46.34;101920.22;5015916;28;45376;-58
2021/06/05 00:39:10;;;;;;;;;4.00;4.00;;;;;26.12;46.17;101921.09;5016634;28;45439;-56
2021/06/05 00:41:35;;;;;;;;;3.50;3.25;;;;;26.11;45.51;101922.97;5016518;28;45534;-53
2021/06/05 00:44:05;;;;;;;;;4.00;3.00;;;;;26.11;46.07;101930.38;5016542;28;46094;-55
2021/06/05 00:46:32;;;;;;;;;3.50;3.50;;;;;26.10;46.32;101925.88;5016240;28;45783;-54
2021/06/05 00:48:59;;;;;;;;;4.50;2.50;;;;;26.10;46.26;101923.13;5016576;28;45446;-54
2021/06/05 00:51:34;;;;;;;;;6.00;5.00;;;;;26.07;46.09;101918.84;5016521;28;45351;-54
2021/06/05 00:54:01;;;;;;;;;4.00;4.00;;;;;26.07;46.30;101918.84;5015503;28;45463;-53
2021/06/05 00:56:26;;;;;;;;;4.75;3.75;;;;;26.07;46.01;101916.09;5016240;28;45401;-54
2021/06/05 00:58:52;;;;;;;;;4.00;4.00;;;;;26.07;46.08;101916.09;5016244;28;45447;-54
2021/06/05 01:01:23;;;;;;;;;4.00;4.00;;;;;26.05;45.77;101913.50;5015459;28;45831;-56
2021/06/05 01:03:51;;;;;;;;;4.00;4.00;;;;;26.03;46.08;101917.47;5014461;28;45450;-55
2021/06/05 01:06:23;;;;;;;;;4.00;4.00;;;;;26.05;45.71;101918.16;5016051;28;45503;-54
2021/06/05 01:08:54;;;;;;;;;4.00;3.00;;;;;26.03;45.99;101921.09;5014877;28;45447;-54
2021/06/05 01:11:19;;;;;;;;;3.25;3.00;;;;;26.03;46.09;101925.72;5016342;28;45329;-54
2021/06/05 01:13:59;;;;;;;;;3.75;3.75;;;;;26.02;45.50;101921.25;5016013;28;45276;-55
2021/06/05 01:16:27;;;;;;;;;4.75;4.00;;;;;26.01;46.03;101912.16;5015823;28;45671;-56
2021/06/05 01:18:58;;;;;;;;;3.50;3.50;;;;;26.00;45.99;101907.66;5016254;28;45393;-56
2021/06/05 01:21:54;;;;;;;;;2.00;2.00;;;;;26.00;45.59;101912.31;5016270;28;45309;-54
2021/06/05 01:24:38;;;;;;;;;4.00;3.00;;;;;26.00;46.06;101915.06;5015788;28;46073;-53
2021/06/05 01:27:11;;;;;;;;;3.00;3.00;;;;;25.96;45.70;101919.22;5018179;28;45657;-54
2021/06/05 01:29:41;;;;;;;;;3.75;2.00;;;;;25.98;46.07;101908.84;5017349;28;45309;-57
2021/06/05 01:32:12;;;;;;;;;4.25;3.25;;;;;25.95;46.00;101914.72;5019482;28;45217;-55
2021/06/05 01:34:58;;;;;;;;;3.00;3.00;;;;;25.97;45.98;101920.94;5018024;28;45444;-53
2021/06/05 01:37:26;;;;;;;;;2.50;2.50;;;;;25.96;46.16;101925.56;5018988;28;45508;-49
2021/06/05 01:39:52;;;;;;;;;2.75;2.00;;;;;25.95;45.44;101918.34;5018346;28;45395;-53
2021/06/05 01:42:29;;;;;;;;;2.50;2.50;;;;;25.95;46.01;101917.47;5019331;28;45393;-56
2021/06/05 01:44:58;;;;;;;;;4.75;3.00;;;;;25.92;45.44;101916.78;5017768;28;47614;-52
2021/06/05 01:47:24;;;;;;;;;2.25;2.25;;;;;25.92;45.77;101916.78;5019312;28;45639;-52
2021/06/05 01:49:50;;;;;;;;;3.00;3.00;;;;;25.91;46.03;101908.69;5018760;28;45332;-55
2021/06/05 01:52:25;;;;;;;;;3.00;3.00;;;;;25.90;45.60;101910.59;5019418;28;45506;-53
2021/06/05 01:54:58;;;;;;;;;3.00;3.00;;;;;25.91;45.62;101908.69;5019101;28;45431;-56
2021/06/05 01:57:31;;;;;;;;;3.00;3.00;;;;;25.89;45.68;101908.88;5017481;28;45368;-55
2021/06/05 01:59:57;;;;;;;;;2.50;2.50;;;;;25.88;45.85;101887.91;5017627;28;45371;-54
2021/06/05 02:02:23;;;;;;;;;4.75;4.00;;;;;25.89;45.60;101877.78;5011203;28;45620;-53
2021/06/05 02:04:50;;;;;;;;;2.00;2.00;;;;;25.88;45.53;101874.16;5004937;28;45542;-52
2021/06/05 02:07:17;;;;;;;;;2.00;1.25;;;;;25.87;45.59;101888.94;4994708;28;45545;-53
2021/06/05 02:09:43;;;;;;;;;2.00;2.00;;;;;25.87;45.83;101886.19;5010847;28;45323;-51
2021/06/05 02:12:16;;;;;;;;;2.00;2.00;;;;;25.83;45.60;101886.72;5016992;28;45512;-55
2021/06/05 02:14:58;;;;;;;;;1.50;1.50;;;;;25.85;45.89;101896.50;5017757;28;45381;-55
2021/06/05 02:17:27;;;;;;;;;1.75;1.75;;;;;25.85;46.06;101888.25;5018020;28;45770;-53
2021/06/05 02:19:58;;;;;;;;;3.75;3.75;;;;;25.86;45.72;101883.63;5018380;28;45389;-53
2021/06/05 02:22:27;;;;;;;;;2.00;2.00;;;;;25.83;45.41;101883.94;5018082;28;45344;-53
2021/06/05 02:24:56;;;;;;;;;2.00;2.00;;;;;25.84;45.91;101881.03;5017747;28;46047;-56
2021/06/05 02:27:23;;;;;;;;;2.25;1.00;;;;;25.83;45.61;101886.72;5018518;28;45525;-54
2021/06/05 02:29:50;;;;;;;;;2.25;2.25;;;;;25.78;45.47;101876.22;5017081;28;45301;-54
2021/06/05 02:32:20;;;;;;;;;2.25;2.25;;;;;25.81;45.69;101895.16;5018791;28;45309;-55
2021/06/05 02:34:48;;;;;;;;;2.75;2.75;;;;;25.81;46.00;101888.78;5018529;28;46112;-52
2021/06/05 02:37:18;;;;;;;;;2.00;2.00;;;;;25.80;45.56;101889.78;5018139;28;45733;-52
2021/06/05 02:39:44;;;;;;;;;3.00;3.00;;;;;25.79;46.00;101886.19;5017709;28;45228;-55
2021/06/05 02:42:16;;;;;;;;;3.75;2.00;;;;;25.77;45.62;101883.59;5018353;28;45459;-55
2021/06/05 02:44:53;;;;;;;;;3.00;3.00;;;;;25.77;46.06;101874.50;5016800;28;45285;-52
2021/06/05 02:47:20;;;;;;;;;2.75;1.00;;;;;25.76;46.03;101879.13;5017824;28;45305;-54
2021/06/05 02:49:46;;;;;;;;;4.00;2.25;;;;;25.76;45.92;101886.53;5018248;28;45359;-54
2021/06/05 02:52:32;;;;;;;;;2.50;2.00;;;;;25.75;45.53;101879.31;5018615;28;45304;-55
2021/06/05 02:55:10;;;;;;;;;2.50;2.50;;;;;25.74;45.64;101885.84;5016883;28;45447;-55
2021/06/05 02:57:36;;;;;;;;;2.00;2.00;;;;;25.74;45.56;101885.84;5017761;28;45357;-56
2021/06/05 03:00:26;;;;;;;;;2.00;2.00;;;;;25.73;45.59;101889.63;5018029;28;45388;-53
2021/06/05 03:02:51;;;;;;;;;2.25;2.25;;;;;25.72;45.58;101890.66;5014018;28;45570;-55
2021/06/05 03:05:17;;;;;;;;;5.00;3.00;;;;;25.71;45.93;101891.69;5017950;28;45437;-52
2021/06/05 03:07:43;;;;;;;;;2.75;2.75;;;;;25.71;45.80;101897.19;5017927;28;45297;-54
2021/06/05 03:10:09;;;;;;;;;2.25;2.25;;;;;25.70;45.58;101896.34;5016545;28;45589;-56
2021/06/05 03:12:35;;;;;;;;;2.00;2.00;;;;;25.68;45.96;101901.16;5017775;28;45531;-56
2021/06/05 03:15:01;;;;;;;;;3.50;2.50;;;;;25.68;45.46;101895.66;5016576;28;45351;-56
2021/06/05 03:17:28;;;;;;;;;1.00;0.00;;;;;25.67;45.78;101884.84;5017714;28;45505;-54
2021/06/05 03:19:55;;;;;;;;;2.25;2.00;;;;;25.67;45.76;101891.19;5017923;28;45254;-53
2021/06/05 03:22:20;;;;;;;;;2.00;2.00;;;;;25.66;45.62;101896.88;5018013;28;45290;-54
2021/06/05 03:24:46;;;;;;;;;1.25;1.25;;;;;25.65;45.84;101893.25;5017228;28;46055;-53
2021/06/05 03:27:11;;;;;;;;;3.75;2.00;;;;;25.64;45.72;101885.19;5017331;28;45469;-51
2021/06/05 03:29:38;;;;;;;;;1.75;1.75;;;;;25.64;45.51;101891.50;5017324;28;45561;-54
2021/06/05 03:32:05;;;;;;;;;1.75;1.75;;;;;25.64;45.87;101897.03;5017717;28;45417;-55
2021/06/05 03:34:30;;;;;;;;;2.50;2.50;;;;;25.61;45.74;101894.59;5017552;28;45520;-51
2021/06/05 03:36:56;;;;;;;;;4.00;3.50;;;;;25.60;45.55;101899.25;5017508;28;45333;-56
2021/06/05 03:39:22;;;;;;;;;1.75;1.75;;;;;25.60;45.65;101895.66;5017636;28;45506;-53
2021/06/05 03:41:48;;;;;;;;;2.00;2.00;;;;;25.60;45.39;101898.41;5017302;28;45432;-54
2021/06/05 03:44:13;;;;;;;;;2.00;2.00;;;;;25.58;45.33;101898.56;5017436;28;45934;-53
2021/06/05 03:46:39;;;;;;;;;3.50;3.50;;;;;25.58;45.22;101892.22;5017430;28;45364;-52
2021/06/05 03:49:06;;;;;;;;;2.75;2.00;;;;;25.56;45.45;101897.88;5015949;28;45366;-54
2021/06/05 03:51:32;;;;;;;;;2.00;2.00;;;;;25.56;45.34;101891.53;5016133;28;45320;-55
2021/06/05 03:53:57;;;;;;;;;2.00;2.00;;;;;25.54;45.43;101891.69;5017055;28;45329;-52
2021/06/05 03:56:23;;;;;;;;;1.25;1.25;;;;;25.55;45.53;101892.56;5017009;28;45403;-53
2021/06/05 03:58:49;;;;;;;;;2.25;2.25;;;;;25.55;45.53;101890.66;5017010;28;45417;-51
2021/06/05 04:01:22;;;;;;;;;1.50;1.50;;;;;25.52;45.15;101888.28;5015969;28;45234;-55
2021/06/05 04:03:48;;;;;;;;;2.50;2.50;;;;;25.53;45.49;101892.75;5015833;28;47910;-53
2021/06/05 04:06:14;;;;;;;;;4.00;2.50;;;;;25.53;45.77;101889.13;5016992;28;45328;-51
2021/06/05 04:08:40;;;;;;;;;2.00;2.00;;;;;25.52;45.34;101885.53;5015619;28;45333;-54
2021/06/05 04:11:08;;;;;;;;;3.50;3.25;;;;;25.47;45.90;101886.00;5016965;28;45411;-53
2021/06/05 04:13:33;;;;;;;;;2.00;2.00;;;;;25.51;45.47;101886.56;5016915;28;46101;-53
2021/06/05 04:15:59;;;;;;;;;3.75;2.25;;;;;25.51;45.64;101891.19;5016851;28;45808;-57
2021/06/05 04:18:30;;;;;;;;;3.00;2.00;;;;;25.50;45.20;101894.94;5017014;28;45305;-54
2021/06/05 04:20:56;;;;;;;;;2.00;2.00;;;;;25.47;45.17;101897.00;5016388;28;45419;-54
2021/06/05 04:23:21;;;;;;;;;2.75;2.00;;;;;25.48;45.48;101897.88;5016884;28;45283;-51
2021/06/05 04:25:47;;;;;;;;;2.50;2.25;;;;;25.47;45.57;101904.41;5016528;28;45261;-55
2021/06/05 04:28:14;;;;;;;;;4.50;3.25;;;;;25.46;45.60;101905.44;5017063;28;45225;-53
2021/06/05 04:30:42;;;;;;;;;2.50;2.50;;;;;25.45;45.54;101898.22;5016322;28;45512;-56
2021/06/05 04:33:10;;;;;;;;;2.00;2.00;;;;;25.44;45.44;101902.88;5016639;28;45324;-56
2021/06/05 04:35:35;;;;;;;;;2.75;2.75;;;;;25.44;45.60;101913.88;5015259;28;45877;-52
2021/06/05 04:38:02;;;;;;;;;2.75;2.50;;;;;25.43;45.76;101912.16;5016858;28;45300;-56
2021/06/05 04:40:28;;;;;;;;;4.00;4.00;;;;;25.43;45.45;101922.28;5016616;28;45391;-54
2021/06/05 04:42:54;;;;;;;;;3.25;3.25;;;;;25.43;45.38;101922.28;5016448;28;45411;-54
2021/06/05 04:45:21;;;;;;;;;2.25;2.25;;;;;25.42;45.60;101926.91;5016518;28;45696;-55
2021/06/05 04:47:47;;;;;;;;;3.00;2.75;;;;;25.41;45.36;101924.28;5015920;28;45420;-52
2021/06/05 04:50:15;;;;;;;;;3.00;3.00;;;;;25.41;45.22;101924.28;5016395;28;45632;-51
2021/06/05 04:52:41;;;;;;;;;2.50;2.00;;;;;25.40;45.23;101928.06;5014730;28;47769;-57
2021/06/05 04:55:08;;;;;;;;;3.00;3.00;;;;;25.40;45.52;101926.19;5016195;28;45309;-52
2021/06/05 04:57:33;;;;;;;;;3.00;2.00;;;;;25.40;45.33;101933.56;5016273;28;45236;-54
2021/06/05 04:59:59;;;;;;;;;3.00;3.00;;;;;25.39;45.66;101932.72;5016111;28;45254;-53
2021/06/05 05:02:24;;;;;;;;;3.00;3.00;;;;;25.39;45.40;101942.88;5016285;28;45980;-56
2021/06/05 05:04:50;;;;;;;;;2.75;2.00;;;;;25.37;45.20;101944.91;5016298;28;45294;-54
2021/06/05 05:07:16;;;;;;;;;3.50;3.50;;;;;25.36;45.22;101948.69;5016088;28;45393;-52
2021/06/05 05:09:41;;;;;;;;;3.00;3.00;;;;;25.36;45.15;101946.78;5003589;28;45290;-55
2021/06/05 05:12:08;;;;;;;;;3.00;1.25;;;;;25.36;45.57;101954.19;4996354;28;45394;-53
2021/06/05 05:14:34;;;;;;;;;3.75;3.00;;;;;25.36;45.16;101956.94;4996417;28;45281;-54
2021/06/05 05:17:00;;;;;;;;;3.25;3.00;;;;;25.35;45.30;101958.81;4996471;28;45426;-55
2021/06/05 05:19:25;;;;;;;;;2.50;2.00;;;;;25.35;45.31;101966.22;5001455;28;45337;-51
2021/06/05 05:21:52;;;;;;;;;3.25;3.00;;;;;25.33;45.51;101969.13;5015712;28;45345;-54
2021/06/05 05:24:17;;;;;;;;;3.00;3.00;;;;;25.32;45.31;101971.03;5016106;28;45501;-56
2021/06/05 05:26:43;;;;;;;;;2.00;2.00;;;;;25.32;45.01;101975.66;5016064;28;45298;-52
2021/06/05 05:29:08;;;;;;;;;3.25;3.00;;;;;25.31;45.04;101983.03;5016211;28;45241;-52
2021/06/05 05:31:34;;;;;;;;;2.50;2.00;;;;;25.30;45.00;101995.06;5015602;28;46639;-53
2021/06/05 05:34:00;;;;;;;;;4.25;3.50;;;;;25.30;45.24;102000.56;5015478;28;45330;-55
2021/06/05 05:36:30;;;;;;;;;3.00;2.00;;;;;25.30;45.18;101995.06;5015833;28;45258;-56
2021/06/05 05:38:56;;;;;;;;;1.25;1.25;;;;;25.30;45.45;102002.47;5015551;28;45389;-56
2021/06/05 05:41:23;;;;;;;;;2.75;2.75;;;;;25.29;45.36;102003.50;5015752;28;45487;-51
2021/06/05 05:43:49;;;;;;;;;2.75;2.75;;;;;25.28;45.04;102001.75;5015669;28;45537;-53
2021/06/05 05:46:15;;;;;;;;;3.00;3.00;;;;;25.28;44.98;102004.50;5015886;28;45349;-56
2021/06/05 05:48:41;;;;;;;;;3.00;3.00;;;;;25.26;45.35;102009.31;5015244;28;45392;-55
2021/06/05 05:51:10;;;;;;;;;2.25;2.25;;;;;25.27;45.13;102008.28;5015420;28;46198;-52
2021/06/05 05:53:39;;;;;;;;;2.50;2.25;;;;;25.26;45.40;102003.81;5015519;28;45321;-56
2021/06/05 05:56:05;;;;;;;;;2.00;2.00;;;;;25.26;44.99;102009.31;5015531;28;45302;-52
2021/06/05 05:58:38;;;;;;;;;4.00;4.00;;;;;25.24;45.36;102009.50;5015663;28;45214;-52
2021/06/05 06:01:07;;;;;;;;;3.00;3.00;;;;;25.24;45.14;102014.97;4995788;28;45297;-56
2021/06/05 06:03:33;;;;;;;;;3.50;2.75;;;;;25.23;44.90;102010.50;4995682;28;45594;-54
2021/06/05 06:05:59;;;;;;;;;3.00;3.00;;;;;25.23;45.17;102013.25;4995597;28;45454;-52
2021/06/05 06:08:25;;;;;;;;;5.00;4.25;;;;;25.20;45.13;102016.34;4997328;28;45310;-54
2021/06/05 06:10:50;;;;;;;;;3.00;3.00;;;;;25.23;45.14;102023.38;5015545;28;45434;-54
2021/06/05 06:13:16;;;;;;;;;2.00;2.00;;;;;25.22;45.00;102018.91;5018794;28;45278;-54
2021/06/05 06:15:42;;;;;;;;;3.50;3.00;;;;;25.20;44.78;102015.47;5018870;28;45209;-55
2021/06/05 06:18:11;;;;;;;;;3.25;1.75;;;;;25.11;45.17;102001.69;5018875;28;45257;-55
2021/06/05 06:20:43;;;;;;;;;2.25;2.25;;;;;25.19;44.85;102019.22;5017691;28;45531;-56
2021/06/05 06:23:11;;;;;;;;;2.50;2.00;;;;;25.17;44.79;102023.03;5018804;28;45556;-55
2021/06/05 06:25:39;;;;;;;;;2.00;2.00;;;;;25.14;45.09;102008.75;5018817;28;45269;-52
2021/06/05 06:28:10;;;;;;;;;3.00;3.00;;;;;25.17;44.74;102023.03;5018060;28;45388;-54
2021/06/05 06:30:37;;;;;;;;;2.25;2.25;;;;;25.16;44.76;102025.94;5018443;28;45402;-54
2021/06/05 06:33:04;;;;;;;;;2.00;2.00;;;;;25.16;44.83;102028.69;5018635;28;45336;-54
2021/06/05 06:35:32;;;;;;;;;1.00;1.00;;;;;25.14;44.87;102020.59;5018486;28;45442;-53
2021/06/05 06:37:59;;;;;;;;;3.50;2.50;;;;;25.11;44.93;102023.69;5018635;28;45387;-54
2021/06/05 06:40:28;;;;;;;;;4.00;3.00;;;;;25.15;44.95;102033.31;5018338;28;46061;-52
2021/06/05 06:42:54;;;;;;;;;3.00;3.00;;;;;25.13;45.21;102043.63;5018418;28;45548;-56
2021/06/05 06:45:19;;;;;;;;;4.00;4.00;;;;;25.14;45.18;102048.09;5018543;28;45344;-56
2021/06/05 06:47:45;;;;;;;;;2.00;2.00;;;;;25.11;45.14;102047.56;5018337;28;45444;-53
2021/06/05 06:50:13;;;;;;;;;3.25;1.75;;;;;25.11;45.09;102045.66;5018033;28;45452;-54
2021/06/05 06:52:39;;;;;;;;;5.00;3.00;;;;;25.12;45.40;102046.50;5016695;28;45636;-53
2021/06/05 06:55:06;;;;;;;;;3.25;3.00;;;;;25.12;45.41;102054.75;5018109;28;45278;-56
2021/06/05 06:57:32;;;;;;;;;4.75;3.00;;;;;25.09;45.17;102053.22;5017988;28;45210;-56
2021/06/05 06:59:58;;;;;;;;;4.00;2.25;;;;;25.11;45.46;102053.06;5017937;28;45357;-55
2021/06/05 07:02:24;;;;;;;;;2.00;2.00;;;;;25.11;45.47;102061.31;5018097;28;45405;-53
2021/06/05 07:04:51;;;;;;;;;3.50;2.25;;;;;25.10;45.04;102054.94;5017790;28;45249;-55
2021/06/05 07:07:17;;;;;;;;;3.00;3.00;;;;;25.12;45.22;102052.00;5017929;28;45266;-51
2021/06/05 07:09:43;;;;;;;;;3.25;3.00;;;;;25.12;45.51;102063.00;5017569;28;46293;-53
2021/06/05 07:12:09;;;;;;;;;3.00;3.00;;;;;25.12;45.15;102058.38;5017864;28;45394;-51
2021/06/05 07:14:34;;;;;;;;;3.00;3.00;;;;;25.12;45.25;102055.63;5018167;28;45383;-54
2021/06/05 07:17:00;;;;;;;;;3.00;3.00;;;;;25.12;45.31;102063.00;5017857;28;45382;-57
2021/06/05 07:19:27;;;;;;;;;4.75;4.25;;;;;25.12;45.38;102054.75;5016020;28;46172;-54
2021/06/05 07:21:53;;;;;;;;;2.75;2.00;;;;;25.11;45.13;102056.66;5017780;28;45728;-53
2021/06/05 07:24:18;;;;;;;;;5.00;3.00;;;;;25.11;45.19;102062.16;5016991;28;45430;-56
2021/06/05 07:26:46;;;;;;;;;3.00;3.00;;;;;25.11;45.11;102061.31;5017840;28;45375;-55
2021/06/05 07:29:12;;;;;;;;;3.00;3.00;;;;;25.11;44.92;102064.06;5017607;28;45391;-52
2021/06/05 07:31:45;;;;;;;;;3.00;3.00;;;;;25.11;44.98;102075.03;5017605;28;45408;-53
2021/06/05 07:34:11;;;;;;;;;3.00;3.00;;;;;25.10;45.00;102071.41;5017457;28;45277;-55
2021/06/05 07:36:48;;;;;;;;;2.75;2.75;;;;;25.11;45.42;102073.16;5017631;28;45378;-54
2021/06/05 07:39:17;;;;;;;;;3.50;2.75;;;;;25.10;45.49;102070.56;5017631;28;45315;-55
2021/06/05 07:41:43;;;;;;;;;3.25;3.25;;;;;25.12;44.89;102079.50;5017322;28;45389;-52
2021/06/05 07:44:10;;;;;;;;;3.75;3.00;;;;;25.13;44.99;102072.97;5017489;28;45381;-50
2021/06/05 07:46:41;;;;;;;;;2.50;2.50;;;;;25.13;45.31;102065.59;5017645;28;45368;-55
2021/06/05 07:49:07;;;;;;;;;4.00;4.00;;;;;25.14;45.43;102074.69;5016984;28;45376;-55
2021/06/05 07:51:32;;;;;;;;;3.00;3.00;;;;;25.14;45.28;102066.44;4999293;28;45440;-58
2021/06/05 07:53:58;;;;;;;;;4.00;3.00;;;;;25.15;45.87;102081.91;5017495;28;45356;-50
2021/06/05 07:56:23;;;;;;;;;3.00;3.00;;;;;25.15;45.41;102073.66;5017148;28;45432;-55
2021/06/05 07:58:49;;;;;;;;;5.50;4.25;;;;;25.15;45.08;102073.66;5016802;28;46189;-55
2021/06/05 08:01:15;;;;;;;;;3.00;3.00;;;;;25.16;45.53;102078.16;5015765;28;45815;-53
2021/06/05 08:03:41;;;;;;;;;3.00;3.00;;;;;25.16;45.52;102075.41;5016948;28;45441;-54
2021/06/05 08:06:06;;;;;;;;;3.75;3.75;;;;;25.16;45.51;102073.53;5017209;28;45504;-54
2021/06/05 08:08:32;;;;;;;;;4.50;4.00;;;;;25.16;45.60;102076.28;5016509;28;45246;-53
2021/06/05 08:10:58;;;;;;;;;4.00;3.50;;;;;25.16;45.63;102068.03;5016994;28;45418;-55
2021/06/05 08:13:24;;;;;;;;;5.50;3.00;;;;;25.12;45.43;102063.00;4999366;28;45366;-53
2021/06/05 08:15:51;;;;;;;;;3.75;3.75;;;;;25.16;45.07;102067.16;5017017;28;45424;-55
2021/06/05 08:18:19;;;;;;;;;3.25;3.25;;;;;25.18;45.63;102084.34;5016773;28;45412;-56
2021/06/05 08:20:57;;;;;;;;;3.00;3.00;;;;;25.16;45.08;102079.03;5016892;28;45687;-55
2021/06/05 08:23:25;;;;;;;;;4.00;4.00;;;;;25.17;45.22;102077.13;5017068;28;45522;-53
2021/06/05 08:25:50;;;;;;;;;5.00;3.00;;;;;25.18;45.29;102081.59;5017020;28;45342;-51
2021/06/05 08:28:21;;;;;;;;;5.00;5.00;;;;;25.18;45.46;102084.34;5016648;28;46075;-56
2021/06/05 08:30:48;;;;;;;;;4.00;4.00;;;;;25.19;45.05;102075.06;5016445;28;45228;-56
2021/06/05 08:33:14;;;;;;;;;5.50;5.00;;;;;25.18;45.29;102073.34;5016755;28;45257;-51
2021/06/05 08:35:41;;;;;;;;;4.50;4.50;;;;;25.19;45.38;102086.06;5016363;28;45251;-54
2021/06/05 08:38:09;;;;;;;;;3.25;3.25;;;;;25.19;45.21;102086.06;5016487;28;46080;-54
2021/06/05 08:41:13;;;;;;;;;4.75;4.25;;;;;25.21;45.48;102077.66;5016558;28;45589;-52
2021/06/05 08:44:21;;;;;;;;;3.00;3.00;;;;;25.21;45.50;102075.78;4994668;28;45370;-56
2021/06/05 08:46:56;;;;;;;;;3.00;3.00;;;;;25.21;45.09;102075.78;4936059;28;45340;-56
2021/06/05 08:49:29;;;;;;;;;3.75;3.00;;;;;25.22;45.42;102080.25;4936060;28;45328;-52
2021/06/05 08:52:05;;;;;;;;;4.00;4.00;;;;;25.23;44.95;102072.84;4936086;28;45585;-55
2021/06/05 08:54:31;;;;;;;;;4.75;4.75;;;;;25.23;45.34;102073.72;4935413;28;45534;-56
2021/06/05 08:57:11;;;;;;;;;4.50;4.00;;;;;25.24;45.46;102072.69;4935700;28;45397;-50
2021/06/05 08:59:40;;;;;;;;;5.00;5.00;;;;;25.24;45.06;102069.97;4924318;28;45475;-52
2021/06/05 09:02:06;;;;;;;;;4.00;4.00;;;;;25.24;45.17;102075.44;4935936;28;45430;-55
2021/06/05 09:04:31;;;;;;;;;3.75;3.75;;;;;25.26;45.62;102081.63;4935743;28;45423;-55
2021/06/05 09:07:04;;;;;;;;;4.50;4.50;;;;;25.25;45.42;102082.63;4935902;28;45875;-55
2021/06/05 09:09:36;;;;;;;;;5.00;4.00;;;;;25.26;45.17;102081.63;4919247;28;47727;-51
2021/06/05 09:12:04;;;;;;;;;3.00;3.00;;;;;25.28;45.36;102075.97;4935887;28;45715;-56
2021/06/05 09:14:30;;;;;;;;;5.00;5.00;;;;;25.27;45.56;102077.84;4935621;28;45432;-55
2021/06/05 09:16:57;;;;;;;;;5.75;4.25;;;;;25.29;45.27;102089.53;4935800;28;45289;-55
2021/06/05 09:19:33;;;;;;;;;3.75;3.75;;;;;25.30;45.61;102088.53;4937043;28;45971;-56
2021/06/05 09:22:07;;;;;;;;;4.75;4.25;;;;;25.31;45.71;102094.91;4955059;28;45432;-51
2021/06/05 09:24:39;;;;;;;;;2.50;2.50;;;;;25.32;45.46;102089.22;5011500;28;45240;-55
2021/06/05 09:27:17;;;;;;;;;4.25;3.25;;;;;25.32;45.39;102089.22;5016055;28;45324;-57
2021/06/05 09:29:51;;;;;;;;;5.00;5.00;;;;;25.36;45.14;102086.16;5015658;28;46167;-53
2021/06/05 09:32:21;;;;;;;;;4.00;4.00;;;;;25.35;45.57;102089.91;5015833;28;45320;-57
2021/06/05 09:34:54;;;;;;;;;3.00;3.00;;;;;25.35;44.98;102089.91;5016060;28;45532;-53
2021/06/05 09:37:39;;;;;;;;;4.50;3.50;;;;;25.37;45.15;102094.22;5016005;28;45302;-55
2021/06/05 09:40:21;;;;;;;;;4.00;3.00;;;;;25.38;45.09;102092.34;5015820;28;45318;-55
2021/06/05 09:42:55;;;;;;;;;3.00;3.00;;;;;25.38;45.40;102078.59;5015905;28;45384;-54
2021/06/05 09:45:34;;;;;;;;;5.00;5.00;;;;;25.35;45.38;102078.94;5015829;28;45333;-56
2021/06/05 09:48:36;;;;;;;;;4.50;4.00;;;;;25.40;45.18;102082.91;5019138;28;45365;-55
2021/06/05 09:51:25;;;;;;;;;5.50;4.00;;;;;25.40;45.51;102080.16;5019137;28;46102;-56
2021/06/05 09:54:12;;;;;;;;;2.25;2.25;;;;;25.43;45.22;102082.59;5018833;28;45635;-54
2021/06/05 09:56:40;;;;;;;;;3.00;3.00;;;;;25.43;45.53;102084.47;5019072;28;45357;-54
2021/06/05 09:59:07;;;;;;;;;4.00;4.00;;;;;25.44;45.20;102081.59;5018562;28;45452;-54
2021/06/05 10:01:36;;;;;;;;;6.00;3.00;;;;;25.45;44.67;102079.69;5018833;28;46307;-55
2021/06/05 10:04:08;;;;;;;;;4.00;4.00;;;;;25.45;45.15;102086.06;5019118;28;45612;-55
2021/06/05 10:06:38;;;;;;;;;4.00;4.00;;;;;25.47;45.15;102083.97;5019115;28;45361;-56
2021/06/05 10:09:24;;;;;;;;;6.25;3.00;;;;;25.49;45.33;102085.69;5018529;28;45471;-57
2021/06/05 10:12:04;;;;;;;;;3.00;3.00;;;;;25.48;44.82;102082.09;5018773;28;45320;-54
2021/06/05 10:14:54;;;;;;;;;5.25;4.25;;;;;25.38;45.02;102064.84;5018853;28;45547;-56
2021/06/05 10:17:20;;;;;;;;;4.00;4.00;;;;;25.50;45.32;102087.41;5018767;28;45332;-52
2021/06/05 10:19:53;;;;;;;;;2.50;2.50;;;;;25.51;44.76;102089.16;5018669;28;45250;-50
2021/06/05 10:22:22;;;;;;;;;4.00;4.00;;;;;25.52;44.80;102089.00;5018663;28;45470;-52
2021/06/05 10:24:57;;;;;;;;;4.00;3.50;;;;;25.54;44.92;102083.31;5017216;28;45400;-54
2021/06/05 10:27:37;;;;;;;;;3.00;3.00;;;;;25.54;44.63;102083.31;5018473;28;45243;-53
2021/06/05 10:30:28;;;;;;;;;4.00;4.00;;;;;25.55;44.73;102090.53;5018702;28;45455;-52
2021/06/05 10:32:57;;;;;;;;;5.00;5.00;;;;;25.53;44.95;102087.97;5015309;28;45385;-53
2021/06/05 10:35:32;;;;;;;;;3.25;3.25;;;;;25.55;45.05;102088.63;5018511;28;45474;-54
2021/06/05 10:38:15;;;;;;;;;2.25;2.25;;;;;25.55;45.10;102088.63;5018568;28;45409;-54
2021/06/05 10:40:41;;;;;;;;;3.50;2.75;;;;;25.57;45.02;102085.75;5018721;28;45382;-53
2021/06/05 10:43:14;;;;;;;;;3.00;3.00;;;;;25.57;45.15;102085.75;5018088;28;45416;-55
2021/06/05 10:45:41;;;;;;;;;3.00;3.00;;;;;25.58;45.03;102093.81;5017368;28;45412;-52
2021/06/05 10:48:30;;;;;;;;;4.00;4.00;;;;;25.60;44.89;102090.91;5006001;28;45360;-55
2021/06/05 10:51:01;;;;;;;;;4.75;3.75;;;;;25.61;44.77;102076.97;5005917;28;45554;-50
2021/06/05 10:53:32;;;;;;;;;4.00;4.00;;;;;25.57;45.21;102085.75;4994970;28;47759;-45
2021/06/05 10:56:12;;;;;;;;;4.25;3.50;;;;;25.62;44.89;102097.97;4997300;28;45346;-47
2021/06/05 10:58:48;;;;;;;;;5.50;5.50;;;;;25.65;45.19;102096.75;5009587;28;45499;-52
2021/06/05 11:01:39;;;;;;;;;5.00;5.00;;;;;25.65;44.70;102096.75;5016905;28;45309;-50
2021/06/05 11:04:30;;;;;;;;;4.00;4.00;;;;;25.65;44.60;102095.91;5010441;28;47088;-51
2021/06/05 11:07:02;;;;;;;;;2.50;2.50;;;;;25.67;45.03;102091.09;5017174;28;45699;-50
2021/06/05 11:09:29;;;;;;;;;3.75;3.75;;;;;25.68;44.90;102098.34;5006616;28;45626;-51
2021/06/05 11:11:59;;;;;;;;;4.00;4.00;;;;;25.69;45.11;102094.53;4997390;28;45812;-47
2021/06/05 11:14:37;;;;;;;;;4.00;4.00;;;;;25.70;44.56;102094.38;4997375;28;46004;-48
2021/06/05 11:17:09;;;;;;;;;3.75;3.75;;;;;25.72;44.94;102091.44;5004182;28;45630;-46
2021/06/05 11:20:04;;;;;;;;;6.00;3.50;;;;;25.71;44.83;102085.09;5016967;28;45416;-50
2021/06/05 11:22:48;;;;;;;;;4.25;4.25;;;;;25.73;44.51;102079.41;5016921;28;45174;-51
2021/06/05 11:25:15;;;;;;;;;4.00;3.00;;;;;25.73;44.61;102073.91;5016674;28;45325;-48
2021/06/05 11:27:40;;;;;;;;;3.25;3.00;;;;;25.73;44.51;102090.41;5017116;28;45469;-51
2021/06/05 11:30:09;;;;;;;;;4.25;4.25;;;;;25.74;44.49;102089.41;5016649;28;45266;-50
2021/06/05 11:33:01;;;;;;;;;5.00;5.00;;;;;25.74;44.78;102086.63;5017038;28;45297;-49
2021/06/05 11:35:54;;;;;;;;;4.00;4.00;;;;;25.74;44.78;102087.53;5016223;28;46052;-46